Time;durP1;ratioP1;P1;durP2;ratioP2;P2;SDS_P1;SDS_P2;PMS_P1;PMS_P2;Temp;Humidity;BMP_temperature;BMP_pressure;BME280_temperature;BME280_humidity;BME280_pressure;Samples;Min_cycle;Max_cycle;Signal;HPM_P1;HPM_P2
2022/10/11 00:01:25;;;;;;;18.90;13.33;;;;;;;;;;5073083;28;20200;-77
2022/10/11 00:03:51;;;;;;;17.40;12.47;;;;;;;;;;5066945;28;21721;-76
2022/10/11 00:06:17;;;;;;;17.43;11.90;;;;;;;;;;5072856;28;20192;-77
2022/10/11 00:08:43;;;;;;;16.00;11.37;;;;;;;;;;5086781;28;20201;-76
2022/10/11 00:11:09;;;;;;;19.43;12.40;;;;;;;;;;5083386;28;20173;-76
2022/10/11 00:13:36;;;;;;;15.43;11.17;;;;;;;;;;5081520;28;20679;-76
2022/10/11 00:16:06;;;;;;;14.67;10.43;;;;;;;;;;5086375;28;20188;-76
2022/10/11 00:18:43;;;;;;;13.67;10.70;;;;;;;;;;5060895;28;20580;-78
2022/10/11 00:21:20;;;;;;;14.73;9.60;;;;;;;;;;5064461;28;20571;-79
2022/10/11 00:23:58;;;;;;;16.23;11.00;;;;;;;;;;5046536;28;20576;-77
2022/10/11 00:26:36;;;;;;;17.50;12.07;;;;;;;;;;5066702;28;20570;-77
2022/10/11 00:29:12;;;;;;;14.97;10.07;;;;;;;;;;5065348;28;21187;-78
2022/10/11 00:31:49;;;;;;;15.57;10.53;;;;;;;;;;5085539;28;20632;-78
2022/10/11 00:34:25;;;;;;;15.37;10.50;;;;;;;;;;5069185;28;20601;-78
2022/10/11 00:37:02;;;;;;;17.50;12.73;;;;;;;;;;5093041;27;20630;-78
2022/10/11 00:39:40;;;;;;;17.80;12.50;;;;;;;;;;5067022;28;20574;-77
2022/10/11 00:42:17;;;;;;;14.47;11.03;;;;;;;;;;5050597;28;20588;-78
2022/10/11 00:45:15;;;;;;;15.40;11.27;;;;;;;;;;5054249;28;20565;-78
2022/10/11 00:47:59;;;;;;;13.67;10.23;;;;;;;;;;5082161;28;20623;-78
2022/10/11 00:50:37;;;;;;;17.70;10.40;;;;;;;;;;5047144;28;20633;-78
2022/10/11 00:53:14;;;;;;;14.93;10.67;;;;;;;;;;5109943;27;20988;-78
2022/10/11 00:55:59;;;;;;;13.40;10.30;;;;;;;;;;5063012;28;20575;-78
2022/10/11 00:58:38;;;;;;;11.83;9.40;;;;;;;;;;5105477;27;21155;-78
2022/10/11 01:01:15;;;;;;;14.50;10.30;;;;;;;;;;5065599;28;20621;-78
2022/10/11 01:03:52;;;;;;;12.37;9.43;;;;;;;;;;5050257;28;21721;-77
2022/10/11 01:06:30;;;;;;;15.23;9.70;;;;;;;;;;5096691;27;20577;-79
2022/10/11 01:09:07;;;;;;;15.97;11.27;;;;;;;;;;5065095;28;20571;-78
2022/10/11 01:11:46;;;;;;;14.43;10.43;;;;;;;;;;5109960;27;20779;-78
2022/10/11 01:14:32;;;;;;;16.03;10.87;;;;;;;;;;5061198;28;20563;-78
2022/10/11 01:17:45;;;;;;;18.13;10.67;;;;;;;;;;5087730;28;20578;-78
2022/10/11 01:20:26;;;;;;;17.23;11.23;;;;;;;;;;5079736;27;20561;-78
2022/10/11 01:23:04;;;;;;;16.40;10.77;;;;;;;;;;5048458;28;20613;-77
2022/10/11 01:25:51;;;;;;;19.13;10.27;;;;;;;;;;5073814;28;20581;-78
2022/10/11 01:28:31;;;;;;;17.13;10.53;;;;;;;;;;5065160;28;20694;-78
2022/10/11 01:31:15;;;;;;;14.93;9.07;;;;;;;;;;5087536;28;20562;-78
2022/10/11 01:34:02;;;;;;;13.40;9.17;;;;;;;;;;5068981;28;20575;-78
2022/10/11 01:36:42;;;;;;;12.47;9.40;;;;;;;;;;5084178;28;21134;-78
2022/10/11 01:39:22;;;;;;;20.43;10.83;;;;;;;;;;5112893;27;21446;-78
2022/10/11 01:42:00;;;;;;;15.03;10.13;;;;;;;;;;5089812;27;20643;-78
2022/10/11 01:44:38;;;;;;;15.03;9.20;;;;;;;;;;5044012;28;20571;-77
2022/10/11 01:47:19;;;;;;;16.53;10.27;;;;;;;;;;5104445;27;20566;-78
2022/10/11 01:49:58;;;;;;;15.80;10.90;;;;;;;;;;5086569;28;20628;-77
2022/10/11 01:52:39;;;;;;;17.17;10.63;;;;;;;;;;5107712;27;20591;-78
2022/10/11 01:55:24;;;;;;;15.03;10.17;;;;;;;;;;5066531;28;20634;-78
2022/10/11 01:58:20;;;;;;;16.23;10.97;;;;;;;;;;5047074;28;20562;-78
2022/10/11 02:01:06;;;;;;;14.97;9.57;;;;;;;;;;5095969;27;20572;-78
2022/10/11 02:04:07;;;;;;;12.97;9.63;;;;;;;;;;5111188;27;20625;-78
2022/10/11 02:06:53;;;;;;;17.87;9.93;;;;;;;;;;5069521;28;20621;-78
2022/10/11 02:09:42;;;;;;;17.57;10.90;;;;;;;;;;5057434;28;20992;-78
2022/10/11 02:12:40;;;;;;;18.33;10.67;;;;;;;;;;5081345;27;20568;-78
2022/10/11 02:15:19;;;;;;;16.57;10.83;;;;;;;;;;5088365;27;21052;-78
2022/10/11 02:17:58;;;;;;;17.13;11.30;;;;;;;;;;5091039;28;20589;-78
2022/10/11 02:20:37;;;;;;;20.97;12.20;;;;;;;;;;5122424;27;20577;-78
2022/10/11 02:23:18;;;;;;;15.70;11.70;;;;;;;;;;5052904;28;20646;-78
2022/10/11 02:25:55;;;;;;;16.83;10.93;;;;;;;;;;5060484;28;20599;-78
2022/10/11 02:28:35;;;;;;;18.37;11.27;;;;;;;;;;5069535;28;20567;-78
2022/10/11 02:31:14;;;;;;;16.83;11.37;;;;;;;;;;5064354;27;20624;-79
2022/10/11 02:34:08;;;;;;;17.03;12.50;;;;;;;;;;5087054;27;21003;-78
2022/10/11 02:36:57;;;;;;;21.47;15.07;;;;;;;;;;5048672;28;20576;-78
2022/10/11 02:39:44;;;;;;;23.47;14.33;;;;;;;;;;5061773;28;20587;-78
2022/10/11 02:42:32;;;;;;;21.60;15.10;;;;;;;;;;5056013;28;20577;-78
2022/10/11 02:45:12;;;;;;;22.50;14.93;;;;;;;;;;5060324;28;21034;-77
2022/10/11 02:47:50;;;;;;;23.77;14.73;;;;;;;;;;5059136;28;20577;-78
2022/10/11 02:50:27;;;;;;;22.83;14.30;;;;;;;;;;5070738;28;20585;-76
2022/10/11 02:53:05;;;;;;;25.57;15.03;;;;;;;;;;5067378;28;20591;-78
2022/10/11 02:55:43;;;;;;;20.07;14.50;;;;;;;;;;5045603;28;20579;-78
2022/10/11 02:58:20;;;;;;;16.60;13.23;;;;;;;;;;5058372;28;20641;-78
2022/10/11 03:00:58;;;;;;;21.63;15.10;;;;;;;;;;5058975;28;20575;-78
2022/10/11 03:03:36;;;;;;;22.13;15.37;;;;;;;;;;5071132;28;20754;-79
2022/10/11 03:06:13;;;;;;;22.37;16.03;;;;;;;;;;5109756;27;20564;-78
2022/10/11 03:08:49;;;;;;;20.83;15.70;;;;;;;;;;5063399;28;20643;-78
2022/10/11 03:11:26;;;;;;;20.97;15.30;;;;;;;;;;5123173;27;20576;-78
2022/10/11 03:14:02;;;;;;;21.57;14.93;;;;;;;;;;5063895;28;20574;-78
2022/10/11 03:16:39;;;;;;;25.60;15.47;;;;;;;;;;5046158;28;20604;-78
2022/10/11 03:19:16;;;;;;;19.50;14.73;;;;;;;;;;5083949;28;20581;-78
2022/10/11 03:21:52;;;;;;;22.63;16.83;;;;;;;;;;5064096;28;21201;-78
2022/10/11 03:24:29;;;;;;;23.83;15.10;;;;;;;;;;5061224;28;20571;-78
2022/10/11 03:27:05;;;;;;;27.17;16.10;;;;;;;;;;5058548;28;21114;-78
2022/10/11 03:29:42;;;;;;;20.47;15.17;;;;;;;;;;5044414;28;20639;-77
2022/10/11 03:32:19;;;;;;;18.40;14.03;;;;;;;;;;5062522;28;21874;-78
2022/10/11 03:34:55;;;;;;;18.33;13.53;;;;;;;;;;5052427;28;20572;-78
2022/10/11 03:37:33;;;;;;;14.63;10.60;;;;;;;;;;5099609;27;20283;-78
2022/10/11 03:40:11;;;;;;;13.20;9.03;;;;;;;;;;5060523;28;20564;-78
2022/10/11 03:42:49;;;;;;;12.03;7.87;;;;;;;;;;5070603;27;20579;-77
2022/10/11 03:45:27;;;;;;;13.07;6.77;;;;;;;;;;5063906;28;20571;-78
2022/10/11 03:48:05;;;;;;;9.77;5.97;;;;;;;;;;5063301;28;20571;-78
2022/10/11 03:50:43;;;;;;;9.63;5.53;;;;;;;;;;5045604;28;20612;-78
2022/10/11 03:53:20;;;;;;;6.97;5.00;;;;;;;;;;5076975;28;21004;-78
2022/10/11 03:55:56;;;;;;;9.60;4.90;;;;;;;;;;5054140;28;20576;-78
2022/10/11 03:58:33;;;;;;;12.73;4.70;;;;;;;;;;5060556;28;20990;-78
2022/10/11 04:01:10;;;;;;;6.87;4.90;;;;;;;;;;5108936;27;20610;-78
2022/10/11 04:03:46;;;;;;;7.10;4.67;;;;;;;;;;5055551;28;20581;-78
2022/10/11 04:06:23;;;;;;;9.83;4.73;;;;;;;;;;5088449;28;20586;-78
2022/10/11 04:09:01;;;;;;;10.40;4.90;;;;;;;;;;5093458;27;20578;-78
2022/10/11 04:11:41;;;;;;;6.77;3.90;;;;;;;;;;5072788;28;20584;-78
2022/10/11 04:14:18;;;;;;;8.40;4.30;;;;;;;;;;5088816;28;20934;-78
2022/10/11 04:16:54;;;;;;;8.27;4.13;;;;;;;;;;5095482;27;20577;-78
2022/10/11 04:19:34;;;;;;;8.87;4.50;;;;;;;;;;5071277;28;20579;-78
2022/10/11 04:22:11;;;;;;;9.57;4.50;;;;;;;;;;5069044;28;20629;-78
2022/10/11 04:24:47;;;;;;;7.87;3.90;;;;;;;;;;5065105;28;20571;-77
2022/10/11 04:27:26;;;;;;;5.73;3.70;;;;;;;;;;5068052;28;20595;-78
2022/10/11 04:30:04;;;;;;;7.80;3.80;;;;;;;;;;5106209;27;20579;-78
2022/10/11 04:32:42;;;;;;;9.50;3.90;;;;;;;;;;5067115;28;20591;-78
2022/10/11 04:35:20;;;;;;;6.57;3.90;;;;;;;;;;5069853;28;21086;-78
2022/10/11 04:37:58;;;;;;;8.93;3.70;;;;;;;;;;5124892;27;20584;-78
2022/10/11 04:40:35;;;;;;;7.40;3.70;;;;;;;;;;5043092;28;20666;-78
2022/10/11 04:43:15;;;;;;;6.87;3.57;;;;;;;;;;5046756;28;20648;-78
2022/10/11 04:45:53;;;;;;;9.50;3.43;;;;;;;;;;5070857;28;20560;-78
2022/10/11 04:48:30;;;;;;;5.17;3.07;;;;;;;;;;5044651;28;21181;-78
2022/10/11 04:51:06;;;;;;;6.63;3.53;;;;;;;;;;5067608;28;20644;-78
2022/10/11 04:53:43;;;;;;;7.10;3.30;;;;;;;;;;5068492;28;20625;-78
2022/10/11 04:56:21;;;;;;;6.90;3.27;;;;;;;;;;5063753;28;20584;-78
2022/10/11 04:58:58;;;;;;;7.53;3.27;;;;;;;;;;5066816;28;20571;-78
2022/10/11 05:01:34;;;;;;;12.00;5.20;;;;;;;;;;5066153;28;20633;-78
2022/10/11 05:04:11;;;;;;;10.33;5.67;;;;;;;;;;5062676;28;20575;-78
2022/10/11 05:06:48;;;;;;;11.00;5.03;;;;;;;;;;5062136;28;20576;-78
2022/10/11 05:09:24;;;;;;;8.00;3.70;;;;;;;;;;5066896;28;20579;-78
2022/10/11 05:12:01;;;;;;;7.67;3.70;;;;;;;;;;5052435;28;20588;-78
2022/10/11 05:14:38;;;;;;;5.87;3.00;;;;;;;;;;5062767;28;20657;-78
2022/10/11 05:17:14;;;;;;;11.70;3.40;;;;;;;;;;5102497;27;20575;-78
2022/10/11 05:19:51;;;;;;;6.90;3.00;;;;;;;;;;5084114;28;20583;-78
2022/10/11 05:22:29;;;;;;;7.43;2.90;;;;;;;;;;5084364;27;20582;-78
2022/10/11 05:25:06;;;;;;;9.33;3.43;;;;;;;;;;5108358;27;20660;-78
2022/10/11 05:27:42;;;;;;;10.80;3.30;;;;;;;;;;5069471;27;21021;-78
2022/10/11 05:30:20;;;;;;;9.47;2.97;;;;;;;;;;5090486;28;20991;-78
2022/10/11 05:32:57;;;;;;;7.73;3.23;;;;;;;;;;5089141;27;20979;-78
2022/10/11 05:35:34;;;;;;;7.77;3.53;;;;;;;;;;5048047;28;21370;-78
2022/10/11 05:38:10;;;;;;;12.30;3.80;;;;;;;;;;5101770;27;20579;-78
2022/10/11 05:40:49;;;;;;;8.10;3.60;;;;;;;;;;5074026;28;20567;-78
2022/10/11 05:43:25;;;;;;;13.27;3.90;;;;;;;;;;5041392;28;20682;-78
2022/10/11 05:46:02;;;;;;;8.50;3.10;;;;;;;;;;5084972;28;20549;-78
2022/10/11 05:48:40;;;;;;;10.37;3.33;;;;;;;;;;5045595;28;20634;-78
2022/10/11 05:51:18;;;;;;;10.07;3.60;;;;;;;;;;5061120;28;21379;-78
2022/10/11 05:53:55;;;;;;;9.97;3.43;;;;;;;;;;5073477;28;20577;-75
2022/10/11 05:56:31;;;;;;;9.67;4.23;;;;;;;;;;5046411;28;21127;-72
2022/10/11 05:59:08;;;;;;;8.50;4.10;;;;;;;;;;5062371;28;20629;-80
2022/10/11 06:01:45;;;;;;;9.57;4.57;;;;;;;;;;5088618;28;21019;-73
2022/10/11 06:04:22;;;;;;;15.23;4.53;;;;;;;;;;5049252;28;20569;-81
2022/10/11 06:07:00;;;;;;;6.30;3.60;;;;;;;;;;5064468;28;20624;-76
2022/10/11 06:09:36;;;;;;;9.80;3.97;;;;;;;;;;5073319;28;20581;-78
2022/10/11 06:12:13;;;;;;;11.93;4.70;;;;;;;;;;5056482;28;20591;-75
2022/10/11 06:15:14;;;;;;;10.20;4.13;;;;;;;;;;5106197;27;20568;-78
2022/10/11 06:18:06;;;;;;;12.97;6.70;;;;;;;;;;5079204;27;20612;-78
2022/10/11 06:21:03;;;;;;;17.03;5.77;;;;;;;;;;5080254;27;20532;-76
2022/10/11 06:23:54;;;;;;;11.50;5.80;;;;;;;;;;5034232;28;20642;-77
2022/10/11 06:27:00;;;;;;;8.57;3.37;;;;;;;;;;5142256;27;20531;-77
2022/10/11 06:29:53;;;;;;;8.97;3.67;;;;;;;;;;5093232;27;21243;-78
2022/10/11 06:33:03;;;;;;;11.20;3.83;;;;;;;;;;5117452;27;20553;-78
2022/10/11 06:35:58;;;;;;;11.63;3.70;;;;;;;;;;5083181;27;20862;-77
2022/10/11 06:39:07;;;;;;;8.77;3.57;;;;;;;;;;5122437;27;20860;-79
2022/10/11 06:42:01;;;;;;;7.87;3.40;;;;;;;;;;5176065;27;20571;-79
2022/10/11 06:44:55;;;;;;;10.50;3.60;;;;;;;;;;5189789;27;20518;-78
2022/10/11 06:47:50;;;;;;;8.57;3.67;;;;;;;;;;5186403;27;20568;-77
2022/10/11 06:50:44;;;;;;;11.57;3.67;;;;;;;;;;5185860;27;20516;-78
2022/10/11 06:53:37;;;;;;;9.37;2.80;;;;;;;;;;5066533;27;20930;-79
2022/10/11 06:56:32;;;;;;;10.93;3.20;;;;;;;;;;5084307;27;20529;-77
2022/10/11 06:59:32;;;;;;;9.27;3.07;;;;;;;;;;5130616;27;20517;-82
2022/10/11 07:02:24;;;;;;;10.53;3.07;;;;;;;;;;5078488;27;20647;-77
2022/10/11 07:05:18;;;;;;;10.13;3.10;;;;;;;;;;5182049;27;20522;-79
2022/10/11 07:08:13;;;;;;;12.30;3.53;;;;;;;;;;5184751;27;20549;-79
2022/10/11 07:11:05;;;;;;;7.53;2.70;;;;;;;;;;5091717;27;20631;-78
2022/10/11 07:14:01;;;;;;;8.43;2.90;;;;;;;;;;5165005;27;20557;-78
2022/10/11 07:17:07;;;;;;;12.33;3.50;;;;;;;;;;5121263;27;20517;-82
2022/10/11 07:20:01;;;;;;;10.83;3.10;;;;;;;;;;5140199;27;20529;-80
2022/10/11 07:22:54;;;;;;;9.93;3.07;;;;;;;;;;5117300;27;20583;-80
2022/10/11 07:25:46;;;;;;;9.27;2.90;;;;;;;;;;5088575;27;20613;-80
2022/10/11 07:28:37;;;;;;;12.07;3.10;;;;;;;;;;5083519;27;21263;-80
2022/10/11 07:31:43;;;;;;;14.40;2.83;;;;;;;;;;5122272;27;20539;-80
2022/10/11 07:34:43;;;;;;;6.77;2.57;;;;;;;;;;5121379;27;20539;-80
2022/10/11 07:37:38;;;;;;;11.43;2.80;;;;;;;;;;5081242;27;20524;-83
2022/10/11 07:40:29;;;;;;;9.53;3.10;;;;;;;;;;5050678;28;20581;-80
2022/10/11 07:43:20;;;;;;;11.07;3.10;;;;;;;;;;5075286;27;20660;-80
2022/10/11 07:46:11;;;;;;;11.00;3.00;;;;;;;;;;5082462;27;21128;-80
2022/10/11 07:49:18;;;;;;;9.77;3.30;;;;;;;;;;5135914;27;21254;-77
2022/10/11 07:52:13;;;;;;;9.87;3.10;;;;;;;;;;5173839;27;20929;-79
2022/10/11 07:55:13;;;;;;;8.00;2.80;;;;;;;;;;5127912;27;20517;-79
2022/10/11 07:58:08;;;;;;;5.87;2.80;;;;;;;;;;5082915;27;20542;-79
2022/10/11 08:01:10;;;;;;;7.50;2.90;;;;;;;;;;5107644;27;20265;-79
2022/10/11 08:04:16;;;;;;;6.90;2.70;;;;;;;;;;5119921;27;20515;-80
2022/10/11 08:07:12;;;;;;;8.97;3.00;;;;;;;;;;5085486;27;20649;-79
2022/10/11 08:10:07;;;;;;;6.53;3.10;;;;;;;;;;5110163;27;20863;-79
2022/10/11 08:13:02;;;;;;;12.07;4.17;;;;;;;;;;5166165;27;20900;-78
2022/10/11 08:16:11;;;;;;;13.37;4.43;;;;;;;;;;5117873;27;20511;-79
2022/10/11 08:19:06;;;;;;;12.63;3.77;;;;;;;;;;5184297;27;20590;-79
2022/10/11 08:22:12;;;;;;;10.70;3.37;;;;;;;;;;5130529;27;21173;-79
2022/10/11 08:25:22;;;;;;;7.97;2.83;;;;;;;;;;5119021;27;20533;-79
2022/10/11 08:28:16;;;;;;;9.17;3.00;;;;;;;;;;5175099;27;20566;-78
2022/10/11 08:31:12;;;;;;;10.57;3.30;;;;;;;;;;5076850;27;20538;-79
2022/10/11 08:34:06;;;;;;;9.13;3.27;;;;;;;;;;5114234;27;20722;-80
2022/10/11 08:37:07;;;;;;;9.93;3.07;;;;;;;;;;5118725;27;20574;-80
2022/10/11 08:40:00;;;;;;;8.10;2.77;;;;;;;;;;5079706;27;20552;-79
2022/10/11 08:43:14;;;;;;;9.70;3.00;;;;;;;;;;5114544;27;20552;-79
2022/10/11 08:45:46;;;;;;;8.47;2.73;;;;;;;;;;5087213;27;20274;-78
2022/10/11 08:48:22;;;;;;;10.03;2.97;;;;;;;;;;5082185;28;20196;-78
2022/10/11 08:50:50;;;;;;;10.23;2.70;;;;;;;;;;5054971;28;20652;-79
2022/10/11 08:53:31;;;;;;;10.83;3.07;;;;;;;;;;5054035;28;20200;-80
2022/10/11 08:55:57;;;;;;;6.20;2.80;;;;;;;;;;5071425;28;20212;-80
2022/10/11 08:58:29;;;;;;;8.50;3.70;;;;;;;;;;5070162;28;20234;-79
2022/10/11 09:00:56;;;;;;;8.47;3.00;;;;;;;;;;5069484;28;20216;-78
2022/10/11 09:03:34;;;;;;;8.23;3.13;;;;;;;;;;5067918;28;20756;-80
2022/10/11 09:06:20;;;;;;;11.40;3.17;;;;;;;;;;5069394;28;20177;-79
2022/10/11 09:09:01;;;;;;;8.93;3.17;;;;;;;;;;5060602;28;20200;-79
2022/10/11 09:11:48;;;;;;;7.70;3.00;;;;;;;;;;5056116;28;20400;-79
2022/10/11 09:14:17;;;;;;;9.07;3.40;;;;;;;;;;5021345;28;20196;-79
2022/10/11 09:16:49;;;;;;;13.17;5.03;;;;;;;;;;5068168;28;20188;-79
2022/10/11 09:19:19;;;;;;;9.17;3.60;;;;;;;;;;5055240;28;20196;-80
2022/10/11 09:21:58;;;;;;;9.77;4.20;;;;;;;;;;5072264;28;20212;-80
2022/10/11 09:24:27;;;;;;;10.83;6.27;;;;;;;;;;5057703;28;20654;-80
2022/10/11 09:26:55;;;;;;;9.87;3.77;;;;;;;;;;5087409;28;20798;-79
2022/10/11 09:29:30;;;;;;;7.93;3.50;;;;;;;;;;5072959;28;20203;-80
2022/10/11 09:31:57;;;;;;;8.70;3.30;;;;;;;;;;5072227;28;20762;-79
2022/10/11 09:34:26;;;;;;;8.10;3.07;;;;;;;;;;5069920;28;20238;-79
2022/10/11 09:36:53;;;;;;;8.70;2.87;;;;;;;;;;5076944;28;20200;-78
2022/10/11 09:39:28;;;;;;;7.97;3.13;;;;;;;;;;5044359;28;20185;-79
2022/10/11 09:41:54;;;;;;;8.47;3.17;;;;;;;;;;5056968;28;20220;-79
2022/10/11 09:44:23;;;;;;;12.43;3.20;;;;;;;;;;5076513;28;20195;-79
2022/10/11 09:46:50;;;;;;;7.53;3.20;;;;;;;;;;5080103;28;20181;-81
2022/10/11 09:49:18;;;;;;;8.53;3.00;;;;;;;;;;5042494;28;20181;-80
2022/10/11 09:51:49;;;;;;;8.73;2.97;;;;;;;;;;5075996;28;20188;-79
2022/10/11 09:54:17;;;;;;;8.47;2.63;;;;;;;;;;5062200;28;20197;-79
2022/10/11 09:56:44;;;;;;;10.00;3.17;;;;;;;;;;5044838;28;20222;-79
2022/10/11 09:59:31;;;;;;;7.53;3.10;;;;;;;;;;5024574;28;20602;-79
2022/10/11 10:02:13;;;;;;;5.73;2.90;;;;;;;;;;5058589;28;20580;-80
2022/10/11 10:05:03;;;;;;;6.03;3.17;;;;;;;;;;5055837;28;20215;-79
2022/10/11 10:07:29;;;;;;;10.07;3.03;;;;;;;;;;5038544;28;20621;-80
2022/10/11 10:09:56;;;;;;;8.10;3.03;;;;;;;;;;5049080;28;20622;-80
2022/10/11 10:12:27;;;;;;;3.47;2.50;;;;;;;;;;5042995;28;21261;-81
2022/10/11 10:15:04;;;;;;;7.30;2.70;;;;;;;;;;5043440;28;20182;-80
2022/10/11 10:17:31;;;;;;;6.47;2.87;;;;;;;;;;5069011;28;20216;-80
2022/10/11 10:19:59;;;;;;;6.13;2.90;;;;;;;;;;5053484;28;20641;-80
2022/10/11 10:22:30;;;;;;;5.53;2.70;;;;;;;;;;5056735;28;20304;-79
2022/10/11 10:24:58;;;;;;;9.67;3.00;;;;;;;;;;5060476;28;20181;-80
2022/10/11 10:27:33;;;;;;;5.37;2.27;;;;;;;;;;5040352;28;20659;-80
2022/10/11 10:30:12;;;;;;;7.93;2.37;;;;;;;;;;5059384;28;20182;-80
2022/10/11 10:32:53;;;;;;;6.77;2.20;;;;;;;;;;5028276;28;20303;-80
2022/10/11 10:35:28;;;;;;;7.63;2.43;;;;;;;;;;5059985;28;20189;-80
2022/10/11 10:38:13;;;;;;;6.40;2.50;;;;;;;;;;5058724;28;20181;-78
2022/10/11 10:40:41;;;;;;;7.33;2.77;;;;;;;;;;5059838;28;20263;-80
2022/10/11 10:43:14;;;;;;;5.73;2.50;;;;;;;;;;5059671;28;21011;-80
2022/10/11 10:46:03;;;;;;;6.77;2.23;;;;;;;;;;5055029;28;20689;-79
2022/10/11 10:48:43;;;;;;;5.23;2.00;;;;;;;;;;5056365;28;20200;-85
2022/10/11 10:51:17;;;;;;;5.57;2.10;;;;;;;;;;5046346;28;20185;-82
2022/10/11 10:53:46;;;;;;;5.97;2.27;;;;;;;;;;5044337;28;20201;-83
2022/10/11 10:56:27;;;;;;;8.00;2.47;;;;;;;;;;5061495;28;20181;-84
2022/10/11 10:58:53;;;;;;;5.30;2.30;;;;;;;;;;5060671;28;20535;-84
2022/10/11 11:01:27;;;;;;;5.20;2.30;;;;;;;;;;5055263;28;20941;-84
2022/10/11 11:04:11;;;;;;;7.00;2.30;;;;;;;;;;5058770;28;20182;-84
2022/10/11 11:06:37;;;;;;;7.90;2.13;;;;;;;;;;5056127;28;20645;-84
2022/10/11 11:09:12;;;;;;;12.03;2.60;;;;;;;;;;5057190;28;21081;-85
2022/10/11 11:11:46;;;;;;;4.97;1.90;;;;;;;;;;5052014;28;20244;-84
2022/10/11 11:14:19;;;;;;;4.87;2.00;;;;;;;;;;5049440;28;20205;-83
2022/10/11 11:16:58;;;;;;;9.33;2.47;;;;;;;;;;5060287;28;20277;-85
2022/10/11 11:19:33;;;;;;;7.07;2.13;;;;;;;;;;5078333;28;20186;-86
2022/10/11 11:22:08;;;;;;;7.30;2.37;;;;;;;;;;5027071;28;20845;-84
2022/10/11 11:24:50;;;;;;;8.13;2.27;;;;;;;;;;5042347;28;20489;-85
2022/10/11 11:27:16;;;;;;;9.33;2.53;;;;;;;;;;5058766;28;20582;-85
2022/10/11 11:29:57;;;;;;;6.83;2.30;;;;;;;;;;5063817;28;20173;-86
2022/10/11 11:32:47;;;;;;;7.77;2.03;;;;;;;;;;5029108;28;20212;-83
2022/10/11 11:35:36;;;;;;;7.67;2.47;;;;;;;;;;5018448;28;20227;-85
2022/10/11 11:38:21;;;;;;;9.07;2.53;;;;;;;;;;5049536;28;20212;-83
2022/10/11 11:40:55;;;;;;;7.40;2.60;;;;;;;;;;5058786;28;20437;-86
2022/10/11 11:43:24;;;;;;;4.80;1.90;;;;;;;;;;5041106;28;20581;-80
2022/10/11 11:45:54;;;;;;;9.57;2.27;;;;;;;;;;5024194;28;20661;-86
2022/10/11 11:48:24;;;;;;;8.63;2.33;;;;;;;;;;5045710;28;20575;-82
2022/10/11 11:51:11;;;;;;;9.30;2.30;;;;;;;;;;5054339;28;20192;-84
2022/10/11 11:53:41;;;;;;;7.23;2.20;;;;;;;;;;5061802;28;20225;-83
2022/10/11 11:56:13;;;;;;;8.43;2.60;;;;;;;;;;5055088;28;20202;-86
2022/10/11 11:58:39;;;;;;;8.97;2.57;;;;;;;;;;5057268;28;20278;-84
2022/10/11 12:01:11;;;;;;;7.57;2.30;;;;;;;;;;5054425;28;20209;-84
2022/10/11 12:03:39;;;;;;;8.07;2.30;;;;;;;;;;5055686;28;20219;-84
2022/10/11 12:06:11;;;;;;;8.50;2.10;;;;;;;;;;5056128;28;20685;-85
2022/10/11 12:08:38;;;;;;;10.50;2.40;;;;;;;;;;5058557;28;20466;-87
2022/10/11 12:11:05;;;;;;;6.90;2.33;;;;;;;;;;5063121;28;20181;-87
2022/10/11 12:13:35;;;;;;;6.80;2.00;;;;;;;;;;5037511;28;20216;-84
2022/10/11 12:16:05;;;;;;;7.30;2.40;;;;;;;;;;5060484;28;20466;-86
2022/10/11 12:18:32;;;;;;;5.67;2.10;;;;;;;;;;5052730;28;20629;-87
2022/10/11 12:21:06;;;;;;;6.77;2.20;;;;;;;;;;5023349;28;20430;-90
2022/10/11 12:23:41;;;;;;;6.47;2.30;;;;;;;;;;5037850;28;20208;-85
2022/10/11 12:26:30;;;;;;;5.03;2.27;;;;;;;;;;5066807;28;20768;-84
2022/10/11 12:29:00;;;;;;;6.43;2.23;;;;;;;;;;5045914;28;20934;-86
2022/10/11 12:31:28;;;;;;;8.23;2.23;;;;;;;;;;5039268;28;20201;-86
2022/10/11 12:34:01;;;;;;;5.37;2.20;;;;;;;;;;5047904;28;20410;-85
2022/10/11 12:36:28;;;;;;;6.50;2.00;;;;;;;;;;5036309;28;20556;-86
2022/10/11 12:39:15;;;;;;;9.90;2.10;;;;;;;;;;5034889;28;20198;-87
2022/10/11 12:41:48;;;;;;;5.73;2.27;;;;;;;;;;5031104;28;20226;-86
2022/10/11 12:44:27;;;;;;;6.90;2.03;;;;;;;;;;5057688;28;20678;-86
2022/10/11 12:46:53;;;;;;;6.37;2.20;;;;;;;;;;5057742;28;20236;-84
2022/10/11 12:49:32;;;;;;;5.40;2.10;;;;;;;;;;5060057;28;20178;-85
2022/10/11 12:52:04;;;;;;;5.00;2.03;;;;;;;;;;5023034;28;20533;-85
2022/10/11 12:54:48;;;;;;;4.17;2.13;;;;;;;;;;5049511;28;20264;-84
2022/10/11 12:57:28;;;;;;;6.53;1.90;;;;;;;;;;5049925;28;20216;-86
2022/10/11 12:59:54;;;;;;;7.73;2.00;;;;;;;;;;5077763;28;20586;-85
2022/10/11 13:02:38;;;;;;;6.33;2.03;;;;;;;;;;5059983;28;20255;-86
2022/10/11 13:05:14;;;;;;;7.33;2.23;;;;;;;;;;5060575;28;20181;-86
2022/10/11 13:07:42;;;;;;;6.37;2.20;;;;;;;;;;5079077;28;20246;-87
2022/10/11 13:10:12;;;;;;;7.17;2.33;;;;;;;;;;5098768;28;20673;-86
2022/10/11 13:12:40;;;;;;;4.37;2.00;;;;;;;;;;5053693;28;20214;-85
2022/10/11 13:15:15;;;;;;;5.90;2.30;;;;;;;;;;5067006;28;20178;-85
2022/10/11 13:17:41;;;;;;;5.30;2.10;;;;;;;;;;5054879;28;20182;-86
2022/10/11 13:20:19;;;;;;;5.10;2.13;;;;;;;;;;5059513;28;20240;-84
2022/10/11 13:22:48;;;;;;;4.03;1.90;;;;;;;;;;5049280;28;20216;-84
2022/10/11 13:25:16;;;;;;;4.33;2.27;;;;;;;;;;5063688;28;20178;-85
2022/10/11 13:27:43;;;;;;;3.97;1.67;;;;;;;;;;5053618;28;20185;-86
2022/10/11 13:30:15;;;;;;;5.67;2.10;;;;;;;;;;5062052;28;20326;-85
2022/10/11 13:32:42;;;;;;;5.90;2.07;;;;;;;;;;5068733;28;20353;-86
2022/10/11 13:35:15;;;;;;;6.47;2.63;;;;;;;;;;5067499;28;20216;-84
2022/10/11 13:37:44;;;;;;;4.77;2.40;;;;;;;;;;5053394;28;20184;-85
2022/10/11 13:40:15;;;;;;;5.83;2.43;;;;;;;;;;5067687;28;20179;-85
2022/10/11 13:42:41;;;;;;;10.63;2.30;;;;;;;;;;5052619;28;20240;-84
2022/10/11 13:45:10;;;;;;;5.33;2.13;;;;;;;;;;5078842;28;20185;-85
2022/10/11 13:47:36;;;;;;;7.00;2.60;;;;;;;;;;5084506;28;20195;-83
2022/10/11 13:50:03;;;;;;;9.07;3.30;;;;;;;;;;5086642;28;20412;-84
2022/10/11 13:52:29;;;;;;;5.27;2.20;;;;;;;;;;5057879;28;20235;-85
2022/10/11 13:54:57;;;;;;;7.30;2.80;;;;;;;;;;5053208;28;20189;-85
2022/10/11 13:57:41;;;;;;;8.23;2.60;;;;;;;;;;5092934;28;20241;-86
2022/10/11 14:00:14;;;;;;;5.70;2.10;;;;;;;;;;5092710;28;20206;-86
2022/10/11 14:02:47;;;;;;;5.87;2.20;;;;;;;;;;5052058;28;20220;-84
2022/10/11 14:05:26;;;;;;;7.57;2.50;;;;;;;;;;5054609;28;20710;-85
2022/10/11 14:07:52;;;;;;;4.63;2.13;;;;;;;;;;5062647;28;20190;-86
2022/10/11 14:10:19;;;;;;;5.60;2.30;;;;;;;;;;5043521;28;20188;-86
2022/10/11 14:12:56;;;;;;;6.70;2.50;;;;;;;;;;5061188;28;20475;-86
2022/10/11 14:15:24;;;;;;;4.90;2.40;;;;;;;;;;5087586;28;20192;-84
2022/10/11 14:17:51;;;;;;;6.83;2.50;;;;;;;;;;5087060;28;20190;-84
2022/10/11 14:20:17;;;;;;;8.13;2.70;;;;;;;;;;5075880;28;20429;-84
2022/10/11 14:22:43;;;;;;;7.07;2.40;;;;;;;;;;5066659;28;20232;-84
2022/10/11 14:25:10;;;;;;;16.80;2.60;;;;;;;;;;5085330;28;20189;-85
2022/10/11 14:27:36;;;;;;;4.77;2.20;;;;;;;;;;5084555;28;20188;-86
2022/10/11 14:30:05;;;;;;;8.57;2.70;;;;;;;;;;5059111;28;21272;-85
2022/10/11 14:32:32;;;;;;;5.93;2.43;;;;;;;;;;5053590;28;20270;-86
2022/10/11 14:34:59;;;;;;;7.03;2.50;;;;;;;;;;5043977;28;20219;-84
2022/10/11 14:37:25;;;;;;;7.90;2.60;;;;;;;;;;5063517;28;20188;-80
2022/10/11 14:39:52;;;;;;;6.87;2.50;;;;;;;;;;5083919;28;20279;-79
2022/10/11 14:42:18;;;;;;;7.50;2.83;;;;;;;;;;5061715;28;20208;-79
2022/10/11 14:44:45;;;;;;;7.60;2.90;;;;;;;;;;5044937;28;20227;-79
2022/10/11 14:47:15;;;;;;;6.10;2.50;;;;;;;;;;5083316;28;20189;-80
2022/10/11 14:49:41;;;;;;;8.17;3.03;;;;;;;;;;5070856;28;20180;-80
2022/10/11 14:52:10;;;;;;;6.50;2.80;;;;;;;;;;5063024;28;20212;-80
2022/10/11 14:54:37;;;;;;;5.97;3.17;;;;;;;;;;5054398;28;20271;-79
2022/10/11 14:57:04;;;;;;;7.03;2.93;;;;;;;;;;5078330;28;20212;-80
2022/10/11 14:59:35;;;;;;;8.07;2.90;;;;;;;;;;5048204;28;20596;-80
2022/10/11 15:02:02;;;;;;;5.10;2.50;;;;;;;;;;5073315;28;20705;-79
2022/10/11 15:04:29;;;;;;;7.70;2.97;;;;;;;;;;5076369;28;20172;-80
2022/10/11 15:06:56;;;;;;;7.00;2.60;;;;;;;;;;5047565;28;20182;-80
2022/10/11 15:09:27;;;;;;;6.10;3.00;;;;;;;;;;5063240;28;20208;-80
2022/10/11 15:11:53;;;;;;;5.17;2.73;;;;;;;;;;5055481;28;20220;-80
2022/10/11 15:14:20;;;;;;;5.30;2.67;;;;;;;;;;5031893;28;20201;-80
2022/10/11 15:16:47;;;;;;;7.87;3.07;;;;;;;;;;5052576;28;20191;-80
2022/10/11 15:19:17;;;;;;;6.03;3.27;;;;;;;;;;5041412;28;20237;-79
2022/10/11 15:21:43;;;;;;;5.53;2.80;;;;;;;;;;5034734;28;20700;-79
2022/10/11 15:24:09;;;;;;;7.20;3.17;;;;;;;;;;5069161;28;20253;-80
2022/10/11 15:26:36;;;;;;;8.80;2.80;;;;;;;;;;5052130;28;20245;-82
2022/10/11 15:29:02;;;;;;;8.77;3.30;;;;;;;;;;5031289;28;20646;-85
2022/10/11 15:31:29;;;;;;;8.70;3.50;;;;;;;;;;5053295;28;20613;-80
2022/10/11 15:33:58;;;;;;;7.67;2.97;;;;;;;;;;5061438;28;20200;-80
2022/10/11 15:36:25;;;;;;;7.17;3.10;;;;;;;;;;5079986;28;20185;-80
2022/10/11 15:38:51;;;;;;;5.97;2.60;;;;;;;;;;5089130;28;20240;-80
2022/10/11 15:41:19;;;;;;;4.27;2.63;;;;;;;;;;5053333;28;20201;-80